Time;durP1;ratioP1;P1;durP2;ratioP2;P2;SDS_P1;SDS_P2;PMS_P1;PMS_P2;Temp;Humidity;BMP_temperature;BMP_pressure;BME280_temperature;BME280_humidity;BME280_pressure;Samples;Min_cycle;Max_cycle;Signal;HPM_P1;HPM_P2
2023/06/09 00:00:36;;;;;;;7.85;7.03;;;14.70;3.80;;;;;;7385599;19;20018;-66
2023/06/09 00:03:07;;;;;;;9.98;7.32;;;14.70;4.20;;;;;;7385859;19;20034;-65
2023/06/09 00:05:39;;;;;;;9.85;7.32;;;14.60;5.30;;;;;;7384599;19;20060;-65
2023/06/09 00:08:11;;;;;;;9.48;7.18;;;14.60;6.00;;;;;;7386386;19;20022;-65
2023/06/09 00:10:44;;;;;;;9.98;7.93;;;14.50;6.90;;;;;;7385185;19;20019;-65
2023/06/09 00:13:15;;;;;;;7.80;7.00;;;14.50;7.70;;;;;;7386517;19;20413;-66
2023/06/09 00:15:45;;;;;;;10.95;7.80;;;14.50;6.10;;;;;;7386306;19;20010;-65
2023/06/09 00:18:16;;;;;;;11.13;7.78;;;14.40;6.90;;;;;;7386238;19;20018;-66
2023/06/09 00:20:49;;;;;;;10.45;8.38;;;14.40;8.00;;;;;;7384458;19;20026;-66
2023/06/09 00:23:19;;;;;;;10.00;8.80;;;14.40;9.30;;;;;;7384814;19;20018;-65
2023/06/09 00:25:52;;;;;;;10.73;8.68;;;14.40;11.00;;;;;;7385706;19;20550;-65
2023/06/09 00:28:22;;;;;;;9.20;8.27;;;14.30;10.90;;;;;;7385413;19;20018;-65
2023/06/09 00:30:52;;;;;;;11.55;8.57;;;14.40;10.60;;;;;;7383382;19;20684;-65
2023/06/09 00:33:22;;;;;;;9.45;8.13;;;14.50;10.80;;;;;;7384785;19;20018;-65
2023/06/09 00:35:52;;;;;;;8.68;7.65;;;14.50;8.90;;;;;;7386492;19;20014;-65
2023/06/09 00:38:22;;;;;;;10.15;8.10;;;14.50;7.20;;;;;;7383348;19;20010;-65
2023/06/09 00:40:54;;;;;;;9.98;8.18;;;14.60;7.30;;;;;;7381720;19;20497;-65
2023/06/09 00:43:24;;;;;;;8.75;7.72;;;14.60;6.60;;;;;;7385978;19;20035;-65
2023/06/09 00:45:55;;;;;;;10.10;7.05;;;14.60;5.00;;;;;;7387489;19;20023;-65
2023/06/09 00:48:25;;;;;;;8.20;7.20;;;14.50;7.10;;;;;;7386089;19;20010;-65
2023/06/09 00:50:55;;;;;;;9.27;6.95;;;14.40;7.10;;;;;;7384608;19;20035;-66
2023/06/09 00:53:27;;;;;;;10.80;7.47;;;14.40;5.60;;;;;;7384631;19;20380;-67
2023/06/09 00:55:59;;;;;;;9.27;7.45;;;14.40;5.00;;;;;;7384967;19;20487;-66
2023/06/09 00:58:30;;;;;;;9.32;8.30;;;14.50;5.10;;;;;;7386155;19;20022;-66
2023/06/09 01:01:00;;;;;;;10.85;7.80;;;14.60;6.40;;;;;;7384565;19;20015;-66
2023/06/09 01:03:32;;;;;;;10.50;7.93;;;14.60;7.20;;;;;;7391868;19;20424;-66
2023/06/09 01:06:12;;;;;;;8.02;7.22;;;14.50;5.70;;;;;;7395601;19;20022;-66
2023/06/09 01:08:49;;;;;;;8.68;7.78;;;14.50;6.10;;;;;;7391439;19;20044;-66
2023/06/09 01:11:29;;;;;;;10.07;7.85;;;14.30;5.20;;;;;;7391663;19;20047;-66
2023/06/09 01:14:07;;;;;;;8.82;7.82;;;14.40;6.50;;;;;;7394977;19;20031;-66
2023/06/09 01:16:43;;;;;;;8.90;7.90;;;14.30;7.00;;;;;;7392786;19;20018;-66
2023/06/09 01:19:31;;;;;;;8.75;7.82;;;14.20;7.00;;;;;;7392928;19;20018;-66
2023/06/09 01:22:04;;;;;;;8.85;7.60;;;14.20;9.30;;;;;;7396338;19;20022;-66
2023/06/09 01:24:47;;;;;;;10.13;8.18;;;14.20;9.70;;;;;;7392421;19;20018;-66
2023/06/09 01:27:21;;;;;;;9.93;7.93;;;14.30;9.90;;;;;;7395112;19;20043;-66
2023/06/09 01:29:55;;;;;;;9.18;8.00;;;14.20;8.40;;;;;;7394160;19;20043;-66
2023/06/09 01:32:26;;;;;;;11.52;8.55;;;14.20;7.00;;;;;;7394244;19;20023;-66
2023/06/09 01:34:56;;;;;;;9.02;7.70;;;14.20;6.90;;;;;;7394587;19;20014;-66
2023/06/09 01:37:27;;;;;;;9.95;7.97;;;14.20;6.20;;;;;;7394334;19;20056;-66
2023/06/09 01:39:57;;;;;;;11.63;8.30;;;14.20;6.90;;;;;;7394309;19;20482;-66
2023/06/09 01:42:30;;;;;;;9.80;8.10;;;14.10;6.90;;;;;;7394454;19;20037;-66
2023/06/09 01:45:00;;;;;;;13.18;8.60;;;13.90;7.40;;;;;;7392538;19;20007;-67
2023/06/09 01:47:30;;;;;;;9.65;8.02;;;13.80;8.60;;;;;;7391411;19;20018;-66
2023/06/09 01:50:05;;;;;;;10.50;8.55;;;13.70;9.20;;;;;;7392587;19;20018;-66
2023/06/09 01:52:41;;;;;;;11.40;8.43;;;13.70;10.50;;;;;;7392917;19;20018;-66
2023/06/09 01:55:17;;;;;;;10.68;8.15;;;13.70;10.80;;;;;;7392989;19;20011;-65
2023/06/09 01:57:55;;;;;;;12.40;8.80;;;13.80;10.90;;;;;;7393554;19;20051;-65
2023/06/09 02:00:28;;;;;;;11.07;8.50;;;13.80;10.30;;;;;;7392123;19;20054;-65
2023/06/09 02:03:02;;;;;;;11.85;8.75;;;13.80;10.50;;;;;;7392853;19;20475;-65
2023/06/09 02:05:33;;;;;;;12.82;9.10;;;13.70;10.90;;;;;;7391784;19;20014;-65
2023/06/09 02:08:03;;;;;;;12.20;9.00;;;13.60;12.40;;;;;;7393757;19;20051;-65
2023/06/09 02:10:35;;;;;;;10.60;9.18;;;13.50;13.00;;;;;;7390364;19;20022;-65
2023/06/09 02:13:18;;;;;;;10.57;9.43;;;13.50;15.10;;;;;;7393919;19;20019;-65
2023/06/09 02:15:49;;;;;;;13.23;9.43;;;13.50;15.90;;;;;;7391464;19;20014;-65
2023/06/09 02:18:21;;;;;;;11.15;9.30;;;13.50;16.20;;;;;;7393031;19;20057;-65
2023/06/09 02:20:52;;;;;;;10.35;8.80;;;13.60;16.30;;;;;;7390426;19;20018;-65
2023/06/09 02:23:23;;;;;;;11.60;9.05;;;13.50;15.10;;;;;;7391240;19;20027;-65
2023/06/09 02:25:53;;;;;;;11.57;8.60;;;13.40;16.90;;;;;;7390315;19;20035;-65
2023/06/09 02:28:26;;;;;;;11.07;9.15;;;13.40;17.20;;;;;;7390445;19;20043;-65
2023/06/09 02:30:56;;;;;;;11.45;9.07;;;13.50;17.40;;;;;;7390905;19;20116;-65
2023/06/09 02:33:26;;;;;;;11.80;9.07;;;13.60;17.50;;;;;;7391696;19;20971;-65
2023/06/09 02:35:56;;;;;;;15.18;9.63;;;13.60;17.00;;;;;;7387892;19;20026;-65
2023/06/09 02:38:27;;;;;;;12.27;9.40;;;13.50;16.00;;;;;;7389425;19;20093;-65
2023/06/09 02:40:56;;;;;;;13.50;9.30;;;13.40;17.10;;;;;;7389161;19;20018;-65
2023/06/09 02:43:29;;;;;;;12.18;10.35;;;13.40;17.40;;;;;;7388144;19;20810;-65
2023/06/09 02:45:59;;;;;;;15.45;10.07;;;13.40;17.90;;;;;;7385981;19;20502;-65
2023/06/09 02:48:31;;;;;;;14.25;10.00;;;13.30;17.90;;;;;;7388766;19;20495;-65
2023/06/09 02:51:01;;;;;;;12.60;9.73;;;13.20;18.60;;;;;;7387767;19;20046;-65
2023/06/09 02:53:32;;;;;;;11.27;9.82;;;13.00;19.70;;;;;;7387874;19;20076;-66
2023/06/09 02:56:02;;;;;;;14.05;9.85;;;13.00;20.60;;;;;;7388219;19;20053;-65
2023/06/09 02:58:34;;;;;;;12.73;9.55;;;13.00;21.50;;;;;;7385942;19;20105;-65
2023/06/09 03:01:04;;;;;;;13.68;10.07;;;13.10;22.70;;;;;;7387423;19;20014;-65
2023/06/09 03:03:34;;;;;;;11.23;10.00;;;13.20;22.80;;;;;;7386483;19;20033;-65
2023/06/09 03:06:07;;;;;;;14.10;10.30;;;13.30;22.80;;;;;;7386611;19;20484;-65
2023/06/09 03:08:37;;;;;;;11.88;10.63;;;13.40;22.20;;;;;;7387424;19;20048;-66
2023/06/09 03:11:07;;;;;;;13.68;11.18;;;13.40;21.50;;;;;;7386374;19;20042;-65
2023/06/09 03:13:39;;;;;;;13.63;11.00;;;13.50;21.00;;;;;;7387580;19;20048;-65
2023/06/09 03:16:09;;;;;;;13.15;11.10;;;13.60;20.80;;;;;;7387392;19;20035;-65
2023/06/09 03:18:39;;;;;;;17.63;10.70;;;13.60;19.70;;;;;;7387262;19;21185;-65
2023/06/09 03:21:10;;;;;;;12.05;10.85;;;13.60;19.70;;;;;;7386074;19;20030;-66
2023/06/09 03:23:40;;;;;;;13.20;10.60;;;13.50;20.30;;;;;;7387608;19;20024;-65
2023/06/09 03:26:10;;;;;;;12.00;10.05;;;13.50;20.10;;;;;;7383346;19;20019;-65
2023/06/09 03:28:43;;;;;;;12.23;10.65;;;13.60;19.40;;;;;;7386945;19;20047;-66
2023/06/09 03:31:13;;;;;;;13.77;10.50;;;13.60;19.10;;;;;;7385079;19;20038;-66
2023/06/09 03:33:43;;;;;;;13.55;10.68;;;13.70;18.90;;;;;;7387005;19;20493;-65
2023/06/09 03:36:13;;;;;;;12.05;10.10;;;13.70;18.70;;;;;;7386851;19;20495;-65
2023/06/09 03:38:43;;;;;;;11.57;10.23;;;13.70;19.00;;;;;;7387211;19;20365;-66
2023/06/09 03:41:13;;;;;;;13.85;10.50;;;13.80;17.30;;;;;;7385835;19;20022;-65
2023/06/09 03:43:45;;;;;;;12.55;10.20;;;14.30;14.40;;;;;;7386759;19;20014;-65
2023/06/09 03:46:15;;;;;;;11.70;9.93;;;14.70;7.30;;;;;;7384681;19;20022;-65
2023/06/09 03:48:45;;;;;;;12.35;9.77;;;15.00;3.50;;;;;;7386522;19;20024;-66
2023/06/09 03:51:16;;;;;;;11.50;9.73;;;15.40;1.00;;;;;;7385426;19;20098;-65
2023/06/09 03:53:45;;;;;;;11.80;9.43;;;15.70;1.00;;;;;;7386321;19;20460;-66
2023/06/09 03:56:16;;;;;;;11.23;9.18;;;15.70;1.00;;;;;;7385924;19;20502;-66
2023/06/09 03:58:48;;;;;;;10.52;9.32;;;16.30;1.00;;;;;;7386017;19;20010;-66
2023/06/09 04:01:18;;;;;;;11.70;9.27;;;16.20;1.00;;;;;;7384901;19;20784;-66
2023/06/09 04:03:48;;;;;;;9.20;8.20;;;16.40;1.00;;;;;;7385108;19;20117;-66
2023/06/09 04:06:18;;;;;;;12.48;9.00;;;16.70;1.00;;;;;;7384808;19;20018;-66
2023/06/09 04:08:48;;;;;;;14.35;8.77;;;17.40;1.00;;;;;;7386173;19;20014;-66
2023/06/09 04:11:18;;;;;;;9.95;8.95;;;18.10;1.00;;;;;;7384317;19;20536;-66
2023/06/09 04:13:52;;;;;;;11.95;9.05;;;18.00;1.00;;;;;;7385840;19;20015;-66
2023/06/09 04:16:22;;;;;;;;;;;17.90;1.00;;;;;;7386257;19;20015;-66
2023/06/09 04:18:53;;;;;;;10.43;8.25;;;18.40;1.00;;;;;;7384470;19;20025;-66
2023/06/09 04:21:23;;;;;;;10.55;8.10;;;19.00;1.00;;;;;;7383681;19;20015;-66
2023/06/09 04:23:53;;;;;;;10.88;8.18;;;19.10;1.00;;;;;;7385726;19;20014;-66
2023/06/09 04:26:23;;;;;;;12.50;8.43;;;18.60;1.00;;;;;;7383399;19;20011;-66
2023/06/09 04:28:56;;;;;;;11.60;8.85;;;19.00;1.00;;;;;;7385399;19;20494;-65
2023/06/09 04:31:33;;;;;;;9.55;8.55;;;18.20;1.00;;;;;;7384070;19;20035;-66
2023/06/09 04:34:05;;;;;;;9.63;8.13;;;18.40;1.00;;;;;;7383655;19;20023;-64
2023/06/09 04:36:35;;;;;;;9.98;8.18;;;18.80;1.00;;;;;;7384200;19;20054;-66
2023/06/09 04:39:07;;;;;;;8.43;7.45;;;19.80;1.00;;;;;;7392376;19;20014;-65
2023/06/09 04:41:37;;;;;;;9.32;7.93;;;20.40;1.00;;;;;;7393626;19;20434;-65
2023/06/09 04:44:10;;;;;;;9.68;8.30;;;20.10;1.00;;;;;;7392386;19;20014;-65
2023/06/09 04:46:41;;;;;;;10.63;8.43;;;20.40;1.00;;;;;;7390664;19;20023;-65
2023/06/09 04:49:12;;;;;;;11.45;8.27;;;20.20;1.00;;;;;;7392589;19;20870;-65
2023/06/09 04:51:46;;;;;;;10.35;7.75;;;19.60;1.00;;;;;;7392278;19;20038;-65
2023/06/09 04:54:17;;;;;;;9.38;8.20;;;20.90;1.00;;;;;;7392830;19;20022;-65
2023/06/09 04:56:52;;;;;;;9.98;8.55;;;20.80;1.00;;;;;;7392905;19;20018;-65
2023/06/09 04:59:25;;;;;;;11.35;7.75;;;21.80;1.00;;;;;;7391892;19;20014;-65
2023/06/09 05:01:55;;;;;;;10.45;8.07;;;22.00;1.00;;;;;;7393044;19;20121;-65
2023/06/09 05:04:25;;;;;;;12.23;8.27;;;21.60;1.00;;;;;;7393208;19;20040;-65
2023/06/09 05:06:55;;;;;;;9.90;8.80;;;21.30;1.00;;;;;;7390622;19;20478;-64
2023/06/09 05:09:25;;;;;;;8.95;7.80;;;20.80;1.00;;;;;;7390846;19;20034;-64
2023/06/09 05:11:55;;;;;;;10.13;8.20;;;21.60;1.00;;;;;;7391877;19;20030;-64
2023/06/09 05:14:27;;;;;;;9.32;7.82;;;22.10;1.00;;;;;;7392377;19;20043;-65
2023/06/09 05:17:02;;;;;;;9.30;8.15;;;22.50;1.00;;;;;;7392769;19;20367;-66
2023/06/09 05:19:32;;;;;;;8.40;7.50;;;22.10;1.00;;;;;;7392133;19;20098;-66
2023/06/09 05:22:02;;;;;;;7.95;7.15;;;22.70;1.00;;;;;;7391945;19;20363;-66
2023/06/09 05:24:32;;;;;;;10.30;7.55;;;22.50;1.00;;;;;;7391978;19;20992;-66
2023/06/09 05:27:02;;;;;;;8.85;7.70;;;22.00;1.00;;;;;;7390103;19;20490;-66
2023/06/09 05:29:34;;;;;;;8.70;7.68;;;22.60;1.00;;;;;;7390036;19;20081;-66
2023/06/09 05:32:04;;;;;;;10.65;8.00;;;22.80;1.00;;;;;;7391371;19;20018;-66
2023/06/09 05:34:35;;;;;;;13.15;8.05;;;22.40;1.00;;;;;;7390612;19;20029;-66
2023/06/09 05:37:06;;;;;;;11.27;7.97;;;22.80;1.00;;;;;;7391429;19;20018;-66
2023/06/09 05:39:36;;;;;;;9.68;7.72;;;22.40;1.00;;;;;;7390992;19;20014;-66
2023/06/09 05:42:06;;;;;;;10.57;8.18;;;22.20;1.00;;;;;;7392057;19;20042;-66
2023/06/09 05:44:39;;;;;;;11.07;8.35;;;22.90;1.00;;;;;;7390728;19;20093;-66
2023/06/09 05:47:10;;;;;;;9.75;8.27;;;22.50;1.00;;;;;;7388587;19;20019;-66
2023/06/09 05:49:42;;;;;;;10.25;8.27;;;22.70;1.00;;;;;;7389141;19;20093;-66
2023/06/09 05:52:12;;;;;;;8.98;8.05;;;22.30;1.00;;;;;;7389478;19;20018;-66
2023/06/09 05:54:42;;;;;;;11.43;7.97;;;22.20;1.00;;;;;;7389688;19;20590;-66
2023/06/09 05:57:12;;;;;;;9.35;8.45;;;21.60;1.00;;;;;;7387175;19;20475;-64
2023/06/09 05:59:45;;;;;;;11.13;8.48;;;21.90;1.00;;;;;;7388795;19;20018;-65
2023/06/09 06:02:15;;;;;;;9.90;7.88;;;21.50;1.00;;;;;;7390936;19;20070;-65
2023/06/09 06:04:45;;;;;;;9.65;8.10;;;20.50;1.00;;;;;;7390097;19;20011;-65
2023/06/09 06:07:17;;;;;;;9.60;7.78;;;20.00;1.00;;;;;;7388952;19;20019;-65
2023/06/09 06:09:47;;;;;;;9.00;7.85;;;19.50;1.00;;;;;;7389616;19;20474;-65
2023/06/09 06:12:17;;;;;;;9.30;7.93;;;18.80;1.00;;;;;;7389820;19;20021;-65
2023/06/09 06:14:49;;;;;;;10.05;8.32;;;18.90;1.00;;;;;;7388824;19;20190;-65
2023/06/09 06:17:19;;;;;;;9.05;7.97;;;19.30;1.00;;;;;;7389770;19;20039;-65
2023/06/09 06:19:49;;;;;;;11.07;8.10;;;19.30;1.00;;;;;;7388858;19;20019;-65
2023/06/09 06:22:19;;;;;;;12.98;7.70;;;19.40;1.00;;;;;;7389706;19;20032;-65
2023/06/09 06:24:49;;;;;;;9.75;7.40;;;19.90;1.00;;;;;;7388684;19;20339;-66
2023/06/09 06:27:19;;;;;;;9.13;7.75;;;20.20;1.00;;;;;;7388400;19;20018;-66
2023/06/09 06:29:52;;;;;;;9.10;7.15;;;20.30;1.00;;;;;;7388656;19;20039;-66
2023/06/09 06:32:22;;;;;;;8.52;7.45;;;20.80;1.00;;;;;;7389061;19;20348;-65
2023/06/09 06:34:52;;;;;;;8.65;7.65;;;22.30;1.00;;;;;;7388130;19;20450;-65
2023/06/09 06:37:23;;;;;;;9.18;7.15;;;22.00;1.00;;;;;;7387221;19;20014;-65
2023/06/09 06:39:52;;;;;;;9.60;7.35;;;22.40;1.00;;;;;;7387862;19;20890;-66
2023/06/09 06:42:24;;;;;;;8.02;6.90;;;22.50;1.00;;;;;;7388852;19;20014;-66
2023/06/09 06:44:56;;;;;;;8.25;6.57;;;21.40;1.00;;;;;;7388156;19;20011;-66
2023/06/09 06:47:26;;;;;;;8.02;6.65;;;20.50;1.00;;;;;;7387457;19;20023;-65
2023/06/09 06:49:56;;;;;;;8.55;6.90;;;20.60;1.00;;;;;;7388234;19;20369;-65
2023/06/09 06:52:26;;;;;;;7.10;6.38;;;20.90;1.00;;;;;;7389087;19;20018;-66
2023/06/09 06:54:58;;;;;;;7.82;6.18;;;20.70;1.00;;;;;;7387531;19;20026;-65
2023/06/09 06:57:29;;;;;;;8.85;6.63;;;20.90;1.00;;;;;;7388099;19;20039;-66
2023/06/09 07:00:07;;;;;;;10.18;7.07;;;21.00;1.00;;;;;;7383256;19;20038;-65
2023/06/09 07:02:37;;;;;;;8.32;6.82;;;21.00;1.00;;;;;;7388215;19;20702;-66
2023/06/09 07:05:09;;;;;;;7.75;6.95;;;21.40;1.00;;;;;;7387647;19;20122;-65
2023/06/09 07:07:38;;;;;;;8.73;7.45;;;21.30;1.00;;;;;;7386703;19;20031;-66
2023/06/09 07:10:10;;;;;;;8.52;7.22;;;21.40;1.00;;;;;;7386205;19;20022;-65
2023/06/09 07:12:41;;;;;;;7.50;6.70;;;21.30;1.00;;;;;;7387341;19;20048;-66
2023/06/09 07:15:14;;;;;;;8.52;6.85;;;21.50;1.00;;;;;;7385666;19;20025;-65
2023/06/09 07:17:44;;;;;;;12.15;7.40;;;21.20;1.00;;;;;;7387299;19;20466;-65
2023/06/09 07:20:14;;;;;;;10.85;6.75;;;21.50;1.00;;;;;;7386219;19;20057;-65
2023/06/09 07:22:46;;;;;;;15.80;7.20;;;21.60;1.00;;;;;;7385805;19;20003;-65
2023/06/09 07:25:16;;;;;;;7.47;6.45;;;21.70;1.00;;;;;;7386306;19;20384;-65
2023/06/09 07:27:47;;;;;;;6.88;6.25;;;21.90;1.00;;;;;;7385907;19;20026;-65
2023/06/09 07:30:19;;;;;;;9.75;6.60;;;21.90;1.00;;;;;;7386573;19;20045;-65
2023/06/09 07:32:49;;;;;;;8.35;6.70;;;21.80;1.00;;;;;;7388658;19;20086;-66
2023/06/09 07:35:19;;;;;;;8.82;6.72;;;21.80;1.00;;;;;;7386719;19;20372;-65
2023/06/09 07:37:50;;;;;;;9.98;6.55;;;22.20;1.00;;;;;;7385351;19;20054;-65
2023/06/09 07:40:20;;;;;;;7.63;6.82;;;22.10;1.00;;;;;;7385995;19;20026;-65
2023/06/09 07:42:51;;;;;;;10.88;6.57;;;21.60;1.00;;;;;;7386439;19;20042;-65
2023/06/09 07:45:23;;;;;;;8.63;6.88;;;21.60;1.00;;;;;;7386660;19;20022;-64
2023/06/09 07:47:53;;;;;;;9.57;6.57;;;21.90;1.00;;;;;;7382949;19;20490;-66
2023/06/09 07:50:23;;;;;;;8.05;5.78;;;22.20;1.00;;;;;;7385111;19;20022;-67
2023/06/09 07:52:53;;;;;;;7.85;6.43;;;22.20;1.00;;;;;;7386559;19;20019;-66
2023/06/09 07:55:25;;;;;;;7.57;6.25;;;22.00;1.00;;;;;;7386565;19;20014;-66
2023/06/09 07:57:55;;;;;;;7.95;5.53;;;22.10;1.00;;;;;;7386345;19;20018;-66
2023/06/09 08:00:27;;;;;;;6.20;5.60;;;22.40;1.00;;;;;;7386266;19;20393;-65
2023/06/09 08:03:02;;;;;;;7.63;5.72;;;22.70;1.00;;;;;;7386177;19;20029;-65
2023/06/09 08:05:33;;;;;;;6.88;5.10;;;22.90;1.00;;;;;;7384629;19;20007;-66
2023/06/09 08:08:06;;;;;;;6.27;5.53;;;22.70;1.00;;;;;;7383485;19;20104;-65
2023/06/09 08:10:36;;;;;;;7.05;5.72;;;22.50;1.00;;;;;;7383414;19;20015;-66
2023/06/09 08:13:06;;;;;;;8.32;5.93;;;22.30;1.00;;;;;;7389646;19;20014;-66
2023/06/09 08:15:39;;;;;;;6.47;5.70;;;22.20;1.00;;;;;;7391312;19;20353;-66
2023/06/09 08:18:09;;;;;;;7.32;5.90;;;22.50;1.00;;;;;;7390032;19;20011;-66
2023/06/09 08:20:40;;;;;;;7.53;5.68;;;22.60;1.00;;;;;;7391364;19;20014;-66
2023/06/09 08:23:10;;;;;;;7.07;5.50;;;23.00;1.00;;;;;;7392989;19;20015;-66
2023/06/09 08:25:40;;;;;;;8.25;5.97;;;23.50;1.00;;;;;;7391285;19;20010;-65
2023/06/09 08:28:11;;;;;;;7.97;5.97;;;22.80;1.00;;;;;;7391370;19;20022;-65
2023/06/09 08:30:44;;;;;;;8.32;5.70;;;22.80;1.00;;;;;;7390840;19;20022;-66
2023/06/09 08:33:15;;;;;;;7.57;5.75;;;23.10;1.00;;;;;;7391411;19;20038;-65
2023/06/09 08:35:45;;;;;;;6.47;5.88;;;23.20;1.00;;;;;;7391700;19;20014;-66
2023/06/09 08:38:15;;;;;;;6.72;6.03;;;23.20;1.00;;;;;;7390153;19;20018;-64
2023/06/09 08:40:45;;;;;;;7.28;6.22;;;23.10;1.00;;;;;;7390317;19;20021;-66
2023/06/09 08:43:16;;;;;;;7.55;5.57;;;23.20;1.00;;;;;;7392208;19;20045;-65
2023/06/09 08:45:54;;;;;;;6.22;5.63;;;23.20;1.00;;;;;;7392496;19;20200;-66
2023/06/09 08:48:25;;;;;;;6.45;5.80;;;23.00;1.00;;;;;;7390341;19;20014;-65
2023/06/09 08:50:57;;;;;;;6.70;6.10;;;23.20;1.00;;;;;;7389631;19;20601;-66
2023/06/09 08:53:27;;;;;;;7.07;5.53;;;23.40;1.00;;;;;;7392489;19;20025;-65
2023/06/09 08:55:58;;;;;;;9.75;5.65;;;23.20;1.00;;;;;;7392364;19;20220;-66
2023/06/09 08:58:29;;;;;;;7.05;5.70;;;23.30;1.00;;;;;;7391157;19;20018;-66
2023/06/09 09:01:02;;;;;;;6.80;6.10;;;23.30;1.00;;;;;;7388605;19;20401;-66
2023/06/09 09:03:32;;;;;;;7.38;6.13;;;23.50;1.00;;;;;;7390529;19;20014;-65
2023/06/09 09:06:02;;;;;;;6.50;5.90;;;23.40;1.00;;;;;;7391572;19;20010;-65
2023/06/09 09:08:32;;;;;;;7.03;5.28;;;23.50;1.00;;;;;;7390181;19;20503;-65
2023/06/09 09:11:02;;;;;;;5.45;4.82;;;23.80;1.00;;;;;;7389751;19;21351;-66
2023/06/09 09:13:32;;;;;;;5.88;4.80;;;23.90;1.00;;;;;;7391197;19;20414;-65
2023/06/09 09:16:05;;;;;;;6.13;4.80;;;24.40;1.00;;;;;;7390653;19;20019;-65
2023/06/09 09:18:38;;;;;;;5.32;4.85;;;24.70;1.00;;;;;;7390526;19;20014;-65
2023/06/09 09:21:09;;;;;;;5.40;4.00;;;24.50;1.00;;;;;;7390143;19;20023;-66
2023/06/09 09:23:39;;;;;;;4.30;3.42;;;24.60;1.00;;;;;;7390376;19;20424;-66
2023/06/09 09:26:09;;;;;;;3.38;3.03;;;24.60;1.00;;;;;;7391033;19;20018;-66
2023/06/09 09:28:43;;;;;;;3.40;3.10;;;24.70;1.00;;;;;;7390425;19;20097;-66
2023/06/09 09:31:15;;;;;;;3.40;3.10;;;25.30;1.00;;;;;;7389814;19;20029;-67
2023/06/09 09:33:49;;;;;;;3.78;3.22;;;25.20;1.00;;;;;;7389776;19;20018;-64
2023/06/09 09:36:21;;;;;;;3.75;3.45;;;25.00;1.00;;;;;;7390419;19;20014;-64
2023/06/09 09:38:51;;;;;;;5.05;3.42;;;25.30;1.00;;;;;;7389564;19;20015;-66
2023/06/09 09:41:21;;;;;;;3.50;3.20;;;25.30;1.00;;;;;;7386765;19;20022;-65
2023/06/09 09:43:57;;;;;;;4.43;3.38;;;25.20;1.00;;;;;;7389928;19;20029;-66
2023/06/09 09:46:38;;;;;;;5.30;3.20;;;24.60;1.00;;;;;;7390146;19;20038;-66
2023/06/09 09:49:08;;;;;;;3.13;2.88;;;25.00;1.00;;;;;;7388787;19;20090;-66
2023/06/09 09:51:39;;;;;;;3.28;3.00;;;24.90;1.00;;;;;;7389319;19;20015;-65
2023/06/09 09:54:11;;;;;;;4.88;3.53;;;25.60;1.00;;;;;;7388925;19;20007;-65
2023/06/09 09:56:41;;;;;;;3.88;2.85;;;25.30;1.00;;;;;;7387501;19;20101;-65
2023/06/09 09:59:11;;;;;;;3.35;3.05;;;25.80;1.00;;;;;;7389433;19;20081;-66
2023/06/09 10:01:44;;;;;;;4.00;3.60;;;25.80;1.00;;;;;;7389621;19;20344;-66
2023/06/09 10:04:14;;;;;;;3.73;3.30;;;26.30;1.00;;;;;;7388261;19;20030;-67
2023/06/09 10:06:45;;;;;;;4.60;3.25;;;25.50;1.00;;;;;;7388006;19;20256;-66
2023/06/09 10:09:19;;;;;;;5.57;3.28;;;25.30;1.00;;;;;;7388284;19;20056;-67
2023/06/09 10:11:49;;;;;;;3.13;2.70;;;25.80;1.00;;;;;;7386432;19;20617;-66
2023/06/09 10:14:20;;;;;;;3.00;2.70;;;25.50;1.00;;;;;;7389257;19;20017;-67
2023/06/09 10:16:54;;;;;;;4.10;3.10;;;25.50;1.00;;;;;;7388497;19;20463;-67
2023/06/09 10:19:26;;;;;;;4.88;2.88;;;25.70;1.00;;;;;;7388491;19;20082;-65
2023/06/09 10:21:56;;;;;;;3.20;2.65;;;26.00;1.00;;;;;;7388538;19;20064;-66
2023/06/09 10:24:27;;;;;;;4.40;2.90;;;25.90;1.00;;;;;;7387586;19;20366;-65
2023/06/09 10:26:58;;;;;;;6.05;3.35;;;26.20;1.00;;;;;;7388186;19;20021;-65
2023/06/09 10:29:30;;;;;;;3.13;2.65;;;26.20;1.00;;;;;;7386685;19;20014;-66
2023/06/09 10:32:03;;;;;;;2.92;2.70;;;26.00;1.00;;;;;;7389024;19;20416;-66
2023/06/09 10:34:36;;;;;;;3.00;2.75;;;26.00;1.00;;;;;;7387395;19;20029;-66
2023/06/09 10:37:06;;;;;;;6.30;2.90;;;25.80;1.00;;;;;;7386361;19;20034;-64
2023/06/09 10:39:52;;;;;;;5.40;2.92;;;26.10;1.00;;;;;;7386669;19;20119;-65
2023/06/09 10:42:34;;;;;;;3.10;2.80;;;26.50;1.00;;;;;;7387716;19;20630;-67
2023/06/09 10:45:11;;;;;;;4.60;2.80;;;26.80;1.00;;;;;;7386328;19;20031;-66
2023/06/09 10:47:48;;;;;;;4.63;3.13;;;26.10;1.00;;;;;;7386798;19;20512;-65
2023/06/09 10:50:26;;;;;;;3.08;2.78;;;26.00;1.00;;;;;;7385928;19;20042;-67
2023/06/09 10:52:57;;;;;;;3.75;2.58;;;26.20;1.00;;;;;;7386911;19;20026;-65
2023/06/09 10:55:28;;;;;;;6.13;4.22;;;26.00;1.00;;;;;;7386906;19;20045;-66
2023/06/09 10:57:59;;;;;;;3.25;2.95;;;25.90;1.00;;;;;;7386954;19;20026;-66
2023/06/09 11:01:04;;;;;;;4.38;2.78;;;26.60;1.00;;;;;;7386636;19;20018;-67
2023/06/09 11:03:36;;;;;;;7.22;2.72;;;26.90;1.00;;;;;;7386854;19;20033;-67
2023/06/09 11:06:06;;;;;;;3.20;2.90;;;26.20;1.00;;;;;;7386805;19;20019;-67
2023/06/09 11:09:11;;;;;;;3.75;2.80;;;26.30;1.00;;;;;;7386250;19;20014;-67
2023/06/09 11:11:51;;;;;;;;;;;26.30;1.00;;;;;;7387553;19;21574;-66
2023/06/09 11:14:56;;;;;;;3.35;3.05;;;26.30;1.00;;;;;;7385956;19;19930;-65
2023/06/09 11:17:29;;;;;;;;;;;26.20;1.00;;;;;;7387466;19;20023;-66
2023/06/09 11:20:18;;;;;;;4.35;3.10;;;26.30;1.00;;;;;;7387163;19;20343;-66
2023/06/09 11:23:06;;;;;;;4.30;2.72;;;27.10;1.00;;;;;;7383512;19;20761;-66
2023/06/09 11:25:43;;;;;;;2.78;2.58;;;27.40;1.00;;;;;;7380741;19;20019;-66
2023/06/09 11:28:23;;;;;;;6.25;2.58;;;27.40;1.00;;;;;;7384634;19;20478;-66
2023/06/09 11:31:17;;;;;;;4.90;2.70;;;27.30;1.00;;;;;;7387670;19;20022;-66
2023/06/09 11:33:48;;;;;;;;;;;26.90;1.00;;;;;;7388557;19;20022;-67
2023/06/09 11:36:30;;;;;;;4.95;2.97;;;26.60;1.00;;;;;;7387032;19;19922;-66
2023/06/09 11:39:07;;;;;;;3.45;2.53;;;26.20;1.00;;;;;;7387227;19;20053;-67
2023/06/09 11:41:37;;;;;;;5.40;2.60;;;26.80;1.00;;;;;;7386943;19;20018;-67
2023/06/09 11:44:07;;;;;;;4.18;3.45;;;27.70;1.00;;;;;;7386260;19;20997;-67
2023/06/09 11:46:38;;;;;;;3.13;2.67;;;27.20;1.00;;;;;;7386278;19;20022;-67
2023/06/09 11:49:11;;;;;;;2.78;2.50;;;27.20;1.00;;;;;;7386224;19;20872;-66
2023/06/09 11:52:06;;;;;;;2.80;2.45;;;26.50;1.00;;;;;;7385554;19;20018;-66
2023/06/09 11:54:49;;;;;;;3.95;2.80;;;27.00;1.00;;;;;;7385573;19;20088;-67
2023/06/09 11:57:19;;;;;;;2.58;2.33;;;27.40;1.00;;;;;;7386007;19;20086;-66
2023/06/09 11:59:50;;;;;;;3.58;3.28;;;27.70;1.00;;;;;;7386191;19;20018;-66
2023/06/09 12:02:20;;;;;;;2.88;2.33;;;27.80;1.00;;;;;;7386226;19;20377;-66
2023/06/09 12:04:50;;;;;;;3.53;2.70;;;27.70;1.00;;;;;;7384282;19;20022;-66
2023/06/09 12:07:23;;;;;;;2.60;2.40;;;28.20;1.00;;;;;;7385572;19;20049;-66
2023/06/09 12:09:59;;;;;;;2.67;2.45;;;28.50;1.00;;;;;;7387794;19;20082;-66
2023/06/09 12:12:29;;;;;;;4.63;2.75;;;28.10;1.00;;;;;;7385768;19;20024;-67
2023/06/09 12:14:59;;;;;;;3.10;2.72;;;28.10;1.00;;;;;;7385893;19;20025;-66
2023/06/09 12:17:29;;;;;;;4.22;2.40;;;27.90;1.00;;;;;;7384294;19;20394;-66
2023/06/09 12:20:00;;;;;;;4.35;2.78;;;27.90;1.00;;;;;;7379840;19;20026;-66
2023/06/09 12:22:42;;;;;;;3.08;2.78;;;27.80;1.00;;;;;;7384999;19;20035;-65
2023/06/09 12:25:29;;;;;;;2.65;2.40;;;27.30;1.00;;;;;;7384585;19;20478;-65
2023/06/09 12:28:01;;;;;;;2.78;2.50;;;28.00;1.00;;;;;;7382707;19;20094;-67
2023/06/09 12:30:35;;;;;;;2.60;2.40;;;28.50;1.00;;;;;;7382509;19;20057;-65
2023/06/09 12:33:08;;;;;;;2.60;2.40;;;28.60;1.00;;;;;;7384519;19;20010;-66
2023/06/09 12:35:42;;;;;;;3.10;2.47;;;28.40;1.00;;;;;;7384900;19;20027;-67
2023/06/09 12:38:19;;;;;;;3.92;2.30;;;28.10;1.00;;;;;;7384674;19;20014;-66
2023/06/09 12:40:51;;;;;;;3.17;2.67;;;27.80;1.00;;;;;;7381198;19;20034;-67
2023/06/09 12:43:22;;;;;;;3.00;2.50;;;28.40;1.00;;;;;;7384309;19;20018;-68
2023/06/09 12:45:56;;;;;;;3.80;2.53;;;28.40;1.00;;;;;;7384256;19;20010;-66
2023/06/09 12:48:27;;;;;;;;;;;28.00;1.00;;;;;;7385223;19;20387;-65
2023/06/09 12:51:00;;;;;;;3.20;2.63;;;27.20;1.00;;;;;;7378326;19;19925;-65
2023/06/09 12:53:32;;;;;;;3.22;2.63;;;26.80;1.00;;;;;;7383867;19;20022;-66
2023/06/09 12:56:02;;;;;;;4.60;2.70;;;26.70;1.00;;;;;;7382263;19;20032;-66
2023/06/09 12:58:32;;;;;;;3.63;2.40;;;26.90;1.00;;;;;;7382969;19;20017;-66
2023/06/09 13:01:02;;;;;;;5.35;2.60;;;27.70;1.00;;;;;;7389277;19;20022;-66
2023/06/09 13:03:32;;;;;;;3.33;2.60;;;27.80;1.00;;;;;;7387975;19;20479;-66
2023/06/09 13:06:02;;;;;;;3.47;2.75;;;27.90;1.00;;;;;;7388670;19;20046;-67
2023/06/09 13:08:35;;;;;;;3.28;2.97;;;27.50;1.00;;;;;;7390059;19;20479;-67
2023/06/09 13:11:05;;;;;;;4.10;2.38;;;27.60;1.00;;;;;;7385302;19;20501;-67
2023/06/09 13:13:35;;;;;;;3.42;2.75;;;27.40;1.00;;;;;;7388669;19;20026;-66
2023/06/09 13:16:05;;;;;;;2.88;2.65;;;27.10;1.00;;;;;;7390877;19;20478;-67
2023/06/09 13:18:35;;;;;;;4.65;3.30;;;27.20;1.00;;;;;;7386921;19;20014;-66